createdAt,value
2023-01-09T00:01:41.926Z,7.70
2023-01-09T00:03:43.730Z,7.60
2023-01-09T00:05:45.487Z,7.60
2023-01-09T00:07:47.305Z,7.60
2023-01-09T00:09:49.133Z,7.60
2023-01-09T00:11:51.952Z,7.50
2023-01-09T00:13:53.928Z,7.50
2023-01-09T00:15:55.689Z,7.50
2023-01-09T00:17:57.479Z,7.60
2023-01-09T00:19:59.277Z,7.60
2023-01-09T00:22:01.102Z,7.50
2023-01-09T00:24:03.117Z,7.50
2023-01-09T00:26:16.932Z,7.50
2023-01-09T00:28:18.630Z,7.60
2023-01-09T00:30:20.482Z,7.50
2023-01-09T00:32:22.220Z,7.60
2023-01-09T00:34:24.335Z,7.50
2023-01-09T00:36:26.537Z,7.50
2023-01-09T00:38:28.689Z,7.50
2023-01-09T00:40:30.692Z,7.50
2023-01-09T00:42:35.202Z,7.50
2023-01-09T00:45:02.253Z,7.50
2023-01-09T00:47:10.962Z,7.50
2023-01-09T00:49:13.940Z,7.50
2023-01-09T00:51:18.963Z,7.50
2023-01-09T00:53:23.430Z,7.40
2023-01-09T00:55:25.315Z,7.50
2023-01-09T00:57:27.226Z,7.50
2023-01-09T00:59:29.269Z,7.50
2023-01-09T01:01:31.166Z,7.50
2023-01-09T01:03:33.091Z,7.50
2023-01-09T01:05:53.406Z,7.50
2023-01-09T01:07:55.074Z,7.50
2023-01-09T01:09:56.825Z,7.50
2023-01-09T01:11:58.509Z,7.50
2023-01-09T01:14:00.427Z,7.50
2023-01-09T01:16:05.067Z,7.60
2023-01-09T01:18:07.210Z,7.50
2023-01-09T01:20:13.112Z,7.60
2023-01-09T01:22:15.119Z,7.50
2023-01-09T01:24:19.749Z,7.60
2023-01-09T01:26:21.462Z,7.60
2023-01-09T01:28:23.228Z,7.60
2023-01-09T01:30:24.995Z,7.50
2023-01-09T01:32:26.644Z,7.60
2023-01-09T01:34:29.643Z,7.60
2023-01-09T01:36:31.448Z,7.50
2023-01-09T01:38:33.539Z,7.60
2023-01-09T01:40:35.874Z,7.60
2023-01-09T01:42:37.559Z,7.50
2023-01-09T01:45:13.415Z,7.50
2023-01-09T01:47:18.196Z,7.50
2023-01-09T01:49:20.509Z,7.50
2023-01-09T01:51:24.298Z,7.60
2023-01-09T01:53:47.586Z,7.50
2023-01-09T01:56:10.326Z,7.50
2023-01-09T01:58:15.865Z,7.50
2023-01-09T02:00:21.596Z,7.50
2023-01-09T02:02:28.257Z,7.50
2023-01-09T02:04:31.855Z,7.50
2023-01-09T02:06:35.007Z,7.40
2023-01-09T02:08:37.012Z,7.50
2023-01-09T02:10:39.621Z,7.50
2023-01-09T02:12:41.313Z,7.50
2023-01-09T02:14:43.293Z,7.50
2023-01-09T02:17:06.674Z,7.50
2023-01-09T02:19:36.483Z,7.50
2023-01-09T02:21:47.339Z,7.50
2023-01-09T02:24:05.005Z,7.50
2023-01-09T02:26:06.759Z,7.50
2023-01-09T02:28:20.650Z,7.60
2023-01-09T02:30:34.728Z,7.50
2023-01-09T02:32:43.867Z,7.50
2023-01-09T02:35:07.080Z,7.60
2023-01-09T02:37:38.116Z,7.80
2023-01-09T02:39:50.380Z,7.80
2023-01-09T02:41:58.787Z,7.80
2023-01-09T02:44:24.463Z,7.90
2023-01-09T02:46:26.356Z,7.90
2023-01-09T02:48:29.425Z,7.90
2023-01-09T02:51:01.166Z,7.90
2023-01-09T02:53:08.674Z,7.90
2023-01-09T02:55:48.327Z,7.90
2023-01-09T02:57:53.062Z,7.90
2023-01-09T03:00:08.106Z,7.90
2023-01-09T03:02:29.638Z,7.90
2023-01-09T03:05:01.792Z,8.00
2023-01-09T03:07:13.377Z,8.00
2023-01-09T03:09:22.362Z,8.00
2023-01-09T03:11:27.979Z,8.00
2023-01-09T03:13:33.855Z,8.00
2023-01-09T03:15:39.586Z,8.10
2023-01-09T03:17:46.705Z,8.10
2023-01-09T03:19:50.105Z,8.00
2023-01-09T03:21:53.325Z,8.10
2023-01-09T03:23:57.586Z,8.10
2023-01-09T03:25:59.234Z,8.00
2023-01-09T03:28:06.405Z,8.00
2023-01-09T03:30:08.827Z,8.00
2023-01-09T03:32:10.655Z,8.00
2023-01-09T03:34:12.429Z,8.00
2023-01-09T03:36:15.992Z,7.90
2023-01-09T03:38:17.749Z,8.00
2023-01-09T03:40:20.191Z,8.00
2023-01-09T03:42:21.820Z,8.00
2023-01-09T03:44:23.561Z,8.00
2023-01-09T03:46:25.401Z,7.90
2023-01-09T03:48:27.162Z,7.90
2023-01-09T03:50:28.868Z,7.90
2023-01-09T03:52:30.639Z,7.90
2023-01-09T03:54:32.405Z,7.80
2023-01-09T03:56:34.086Z,7.90
2023-01-09T03:58:35.842Z,7.80
2023-01-09T04:00:39.175Z,7.80
2023-01-09T04:02:40.897Z,7.80
2023-01-09T04:04:42.666Z,7.90
2023-01-09T04:06:44.413Z,7.80
2023-01-09T04:08:46.390Z,7.90
2023-01-09T04:10:49.865Z,7.80
2023-01-09T04:12:51.674Z,7.80
2023-01-09T04:14:53.387Z,7.80
2023-01-09T04:16:55.075Z,7.80
2023-01-09T04:18:56.965Z,7.70
2023-01-09T04:20:58.645Z,7.70
2023-01-09T04:23:00.748Z,7.70
2023-01-09T04:25:02.546Z,7.70
2023-01-09T04:27:04.352Z,7.70
2023-01-09T04:29:06.058Z,7.70
2023-01-09T04:31:07.824Z,7.70
2023-01-09T04:33:09.587Z,7.70
2023-01-09T04:35:11.384Z,7.70
2023-01-09T04:37:13.306Z,7.60
2023-01-09T04:39:14.988Z,7.60
2023-01-09T04:41:36.696Z,7.60
2023-01-09T04:43:42.181Z,7.60
2023-01-09T04:45:43.984Z,7.60
2023-01-09T04:47:45.818Z,7.60
2023-01-09T04:49:47.597Z,7.60
2023-01-09T04:51:49.640Z,7.60
2023-01-09T04:53:51.477Z,7.60
2023-01-09T04:55:53.180Z,7.60
2023-01-09T04:57:54.921Z,7.50
2023-01-09T04:59:56.785Z,7.50
2023-01-09T05:01:59.505Z,7.40
2023-01-09T05:04:01.654Z,7.40
2023-01-09T05:06:03.660Z,7.40
2023-01-09T05:08:05.983Z,7.30
2023-01-09T05:10:09.356Z,7.20
2023-01-09T05:12:11.241Z,7.20
2023-01-09T05:14:13.029Z,7.20
2023-01-09T05:16:15.188Z,7.20
2023-01-09T05:18:16.946Z,7.10
2023-01-09T05:20:18.720Z,7.10
2023-01-09T05:22:20.480Z,7.00
2023-01-09T05:24:22.206Z,6.90
2023-01-09T05:26:24.375Z,6.90
2023-01-09T05:28:26.232Z,6.90
2023-01-09T05:30:28.992Z,6.80
2023-01-09T05:32:30.718Z,6.90
2023-01-09T05:34:32.574Z,6.80
2023-01-09T05:36:34.329Z,6.80
2023-01-09T05:38:36.359Z,6.80
2023-01-09T05:40:40.291Z,6.80
2023-01-09T05:42:43.508Z,6.80
2023-01-09T05:44:45.322Z,6.80
2023-01-09T05:46:46.971Z,6.70
2023-01-09T05:48:48.647Z,6.70
2023-01-09T05:50:50.662Z,6.70
2023-01-09T05:52:52.412Z,6.60
2023-01-09T05:54:54.111Z,6.70
2023-01-09T05:56:55.797Z,6.60
2023-01-09T05:58:57.548Z,6.50
2023-01-09T06:00:59.516Z,6.40
2023-01-09T06:03:01.300Z,6.40
2023-01-09T06:05:03.377Z,6.30
2023-01-09T06:07:05.249Z,6.30
2023-01-09T06:09:07.236Z,6.30
2023-01-09T06:11:09.080Z,6.20
2023-01-09T06:13:10.810Z,6.20
2023-01-09T06:15:12.578Z,6.20
2023-01-09T06:17:14.262Z,6.10
2023-01-09T06:19:16.245Z,6.10
2023-01-09T06:21:18.092Z,6.10
2023-01-09T06:23:19.924Z,6.10
2023-01-09T06:25:21.788Z,6.10
2023-01-09T06:27:23.541Z,6.10
2023-01-09T06:29:25.282Z,6.00
2023-01-09T06:31:27.305Z,5.90
2023-01-09T06:33:29.095Z,5.70
2023-01-09T06:35:30.849Z,5.60
2023-01-09T06:37:33.395Z,5.50
2023-01-09T06:39:35.425Z,5.50
2023-01-09T06:41:37.556Z,5.40
2023-01-09T06:43:39.850Z,5.30
2023-01-09T06:45:43.617Z,5.30
2023-01-09T06:47:45.530Z,5.20
2023-01-09T06:49:47.309Z,5.20
2023-01-09T06:51:50.465Z,5.20
2023-01-09T06:53:52.162Z,5.20
2023-01-09T06:55:54.010Z,5.30
2023-01-09T06:57:55.775Z,5.30
2023-01-09T06:59:57.904Z,5.30
2023-01-09T07:01:59.684Z,5.30
2023-01-09T07:04:01.558Z,5.30
2023-01-09T07:06:03.925Z,5.20
2023-01-09T07:08:05.940Z,5.20
2023-01-09T07:10:10.671Z,5.20
2023-01-09T07:12:12.951Z,5.10
2023-01-09T07:14:14.696Z,5.20
2023-01-09T07:16:16.479Z,5.30
2023-01-09T07:18:18.169Z,5.30
2023-01-09T07:20:20.327Z,5.40
2023-01-09T07:22:22.146Z,5.50
2023-01-09T07:24:24.107Z,5.50
2023-01-09T07:26:25.844Z,5.60
2023-01-09T07:28:27.614Z,5.60
2023-01-09T07:30:29.530Z,5.50
2023-01-09T07:32:31.516Z,5.50
2023-01-09T07:34:33.355Z,5.50
2023-01-09T07:36:35.025Z,5.50
2023-01-09T07:38:37.573Z,5.50
2023-01-09T07:40:39.493Z,5.50
2023-01-09T07:42:41.318Z,5.50
2023-01-09T07:44:43.187Z,5.60
2023-01-09T07:46:44.922Z,5.60
2023-01-09T07:48:46.609Z,5.60
2023-01-09T07:50:48.368Z,5.70
2023-01-09T07:52:50.061Z,5.70
2023-01-09T07:54:51.777Z,5.80
2023-01-09T07:56:53.626Z,5.80
2023-01-09T07:58:55.300Z,5.70
2023-01-09T08:00:56.997Z,5.70
2023-01-09T08:02:58.852Z,5.70
2023-01-09T08:05:00.634Z,5.60
2023-01-09T08:07:03.349Z,5.60
2023-01-09T08:09:05.183Z,5.60
2023-01-09T08:11:06.904Z,5.70
2023-01-09T08:13:08.604Z,5.70
2023-01-09T08:15:10.851Z,5.80
2023-01-09T08:17:12.642Z,5.70
2023-01-09T08:19:14.414Z,5.70
2023-01-09T08:21:16.604Z,5.80
2023-01-09T08:23:18.405Z,5.80
2023-01-09T08:25:21.795Z,5.80
2023-01-09T08:27:23.469Z,5.80
2023-01-09T08:29:25.217Z,5.80
2023-01-09T08:31:26.920Z,5.90
2023-01-09T08:33:29.140Z,5.90
2023-01-09T08:35:30.939Z,5.90
2023-01-09T08:37:33.892Z,5.90
2023-01-09T08:39:36.102Z,5.80
2023-01-09T08:41:56.309Z,5.70
2023-01-09T08:44:16.698Z,5.70
2023-01-09T08:46:39.609Z,5.80
2023-01-09T08:48:41.467Z,5.70
2023-01-09T08:50:43.868Z,5.80
2023-01-09T08:52:45.571Z,5.80
2023-01-09T08:54:47.395Z,5.80
2023-01-09T08:56:49.140Z,5.90
2023-01-09T08:58:50.914Z,5.90
2023-01-09T09:00:52.873Z,5.90
2023-01-09T09:02:56.927Z,5.90
2023-01-09T09:04:59.353Z,5.90
2023-01-09T09:07:07.136Z,6.00
2023-01-09T09:09:24.417Z,6.10
2023-01-09T09:11:26.231Z,6.10
2023-01-09T09:13:28.079Z,6.10
2023-01-09T09:15:29.976Z,6.20
2023-01-09T09:17:32.938Z,6.20
2023-01-09T09:19:34.778Z,6.30
2023-01-09T09:21:36.504Z,6.50
2023-01-09T09:23:38.241Z,6.80
2023-01-09T09:25:46.686Z,7.10
2023-01-09T09:27:48.883Z,7.10
2023-01-09T09:29:50.709Z,7.20
2023-01-09T09:31:52.522Z,7.30
2023-01-09T09:33:54.244Z,7.40
2023-01-09T09:35:58.083Z,7.60
2023-01-09T09:38:05.151Z,7.70
2023-01-09T09:40:22.746Z,7.70
2023-01-09T09:43:30.828Z,7.70
2023-01-09T09:45:52.631Z,7.90
2023-01-09T09:48:18.798Z,8.10
2023-01-09T09:50:43.322Z,8.40
2023-01-09T09:52:52.166Z,8.50
2023-01-09T09:54:57.136Z,8.60
2023-01-09T09:57:02.278Z,8.60
2023-01-09T09:59:20.339Z,8.50
2023-01-09T10:01:29.051Z,8.50
2023-01-09T10:03:56.670Z,8.50
2023-01-09T10:06:00.570Z,8.50
2023-01-09T10:08:16.031Z,8.60
2023-01-09T10:10:38.589Z,8.50
2023-01-09T10:12:52.545Z,8.70
2023-01-09T10:14:59.759Z,8.80
2023-01-09T10:17:11.878Z,8.90
2023-01-09T10:19:31.302Z,8.80
2023-01-09T10:21:54.279Z,8.70
2023-01-09T10:24:04.519Z,8.70
2023-01-09T10:26:28.832Z,8.80
2023-01-09T10:28:36.521Z,9.10
2023-01-09T10:30:59.310Z,9.10
2023-01-09T10:33:09.823Z,9.00
2023-01-09T10:35:47.345Z,9.30
2023-01-09T10:37:55.844Z,9.70
2023-01-09T10:40:24.211Z,9.60
2023-01-09T10:42:33.492Z,9.40
2023-01-09T10:44:41.976Z,9.20
2023-01-09T10:46:54.941Z,9.10
2023-01-09T10:49:07.879Z,8.90
2023-01-09T10:51:58.478Z,8.80
2023-01-09T10:54:01.720Z,8.90
2023-01-09T10:56:21.748Z,9.10
2023-01-09T10:58:28.837Z,9.00
2023-01-09T11:00:31.816Z,8.90
2023-01-09T11:02:40.656Z,9.00
2023-01-09T11:04:50.500Z,8.90
2023-01-09T11:07:20.424Z,8.80
2023-01-09T11:09:30.903Z,8.90
2023-01-09T11:11:45.639Z,8.80
2023-01-09T11:14:04.992Z,8.80
2023-01-09T11:16:28.284Z,8.80
2023-01-09T11:18:30.636Z,8.70
2023-01-09T11:20:32.773Z,8.60
2023-01-09T11:22:52.839Z,8.60
2023-01-09T11:25:05.596Z,8.60
2023-01-09T11:27:15.924Z,8.50
2023-01-09T11:29:20.804Z,8.60
2023-01-09T11:31:30.941Z,8.60
2023-01-09T11:34:01.817Z,8.70
2023-01-09T11:36:41.979Z,8.60
2023-01-09T11:38:57.885Z,8.70
2023-01-09T11:41:04.923Z,8.70
2023-01-09T11:43:14.035Z,8.80
2023-01-09T11:45:18.775Z,8.90
2023-01-09T11:47:39.105Z,9.00
2023-01-09T11:49:40.920Z,9.00
2023-01-09T11:51:42.964Z,9.10
2023-01-09T11:53:50.521Z,9.10
2023-01-09T11:56:01.239Z,9.20
2023-01-09T11:58:03.240Z,9.40
2023-01-09T12:00:24.849Z,9.50
2023-01-09T12:02:35.569Z,9.60
2023-01-09T12:05:01.287Z,9.50
2023-01-09T12:07:11.769Z,9.40
2023-01-09T12:09:33.973Z,9.20
2023-01-09T12:12:02.127Z,9.40
2023-01-09T12:14:24.964Z,9.40
2023-01-09T12:16:32.724Z,9.50
2023-01-09T12:18:53.313Z,9.40
2023-01-09T12:21:32.767Z,9.50
2023-01-09T12:24:02.734Z,9.40
2023-01-09T12:26:24.545Z,9.30
2023-01-09T12:29:07.528Z,9.10
2023-01-09T12:31:26.595Z,9.10
2023-01-09T12:33:31.119Z,9.10
2023-01-09T12:35:40.381Z,9.10
2023-01-09T12:38:17.104Z,9.10
2023-01-09T12:40:33.823Z,9.20
2023-01-09T12:42:50.410Z,9.10
2023-01-09T12:45:10.291Z,9.10
2023-01-09T12:47:34.037Z,9.20
2023-01-09T12:49:44.319Z,9.20
2023-01-09T12:51:56.815Z,9.30
2023-01-09T12:54:09.289Z,9.30
2023-01-09T12:56:16.203Z,9.20
2023-01-09T12:58:28.745Z,9.20
2023-01-09T13:00:48.935Z,9.20
2023-01-09T13:03:20.639Z,9.10
2023-01-09T13:05:42.657Z,9.10
2023-01-09T13:07:53.720Z,9.00
2023-01-09T13:10:01.984Z,9.00
2023-01-09T13:12:07.607Z,9.10
2023-01-09T13:14:20.208Z,9.10
2023-01-09T13:16:28.111Z,9.00
2023-01-09T13:18:48.898Z,9.00
2023-01-09T13:20:58.169Z,8.90
2023-01-09T13:23:02.300Z,8.90
2023-01-09T13:25:20.591Z,8.80
2023-01-09T13:27:26.525Z,8.60
2023-01-09T13:29:42.046Z,8.50
2023-01-09T13:32:05.591Z,8.40
2023-01-09T13:34:21.917Z,8.20
2023-01-09T13:36:39.982Z,7.80
2023-01-09T13:38:41.945Z,7.80
2023-01-09T13:40:43.751Z,7.90
2023-01-09T13:43:02.446Z,8.00
2023-01-09T13:45:26.953Z,7.90
2023-01-09T13:47:29.149Z,7.80
2023-01-09T13:49:37.108Z,7.90
2023-01-09T13:51:41.951Z,7.80
2023-01-09T13:53:45.942Z,7.80
2023-01-09T13:56:02.965Z,8.00
2023-01-09T13:58:04.860Z,8.60
2023-01-09T14:00:12.545Z,8.80
2023-01-09T14:02:36.605Z,8.60
2023-01-09T14:04:42.815Z,8.50
2023-01-09T14:07:14.643Z,8.30
2023-01-09T14:09:23.343Z,8.30
2023-01-09T14:11:27.496Z,8.30
2023-01-09T14:13:33.210Z,8.20
2023-01-09T14:15:40.974Z,8.20
2023-01-09T14:17:42.812Z,8.20
2023-01-09T14:19:44.921Z,8.30
2023-01-09T14:21:55.260Z,8.40
2023-01-09T14:24:06.637Z,8.50
2023-01-09T14:26:20.867Z,8.60
2023-01-09T14:28:27.834Z,8.60
2023-01-09T14:30:31.798Z,8.50
2023-01-09T14:32:34.070Z,8.50
2023-01-09T14:34:37.288Z,8.60
2023-01-09T14:36:41.226Z,8.70
2023-01-09T14:38:55.678Z,8.60
2023-01-09T14:41:00.589Z,8.60
2023-01-09T14:43:19.291Z,8.50
2023-01-09T14:45:26.934Z,8.40
2023-01-09T14:47:31.760Z,8.30
2023-01-09T14:49:41.747Z,8.30
2023-01-09T14:51:47.219Z,8.20
2023-01-09T14:53:52.213Z,8.10
2023-01-09T14:55:58.316Z,8.00
2023-01-09T14:58:27.241Z,8.00
2023-01-09T15:00:28.978Z,7.90
2023-01-09T15:02:36.734Z,7.90
2023-01-09T15:04:41.216Z,7.80
2023-01-09T15:06:44.832Z,7.80
2023-01-09T15:08:51.439Z,7.70
2023-01-09T15:10:55.252Z,7.70
2023-01-09T15:13:00.538Z,7.80
2023-01-09T15:15:04.744Z,7.70
2023-01-09T15:17:16.701Z,7.70
2023-01-09T15:19:19.767Z,7.70
2023-01-09T15:21:35.875Z,7.70
2023-01-09T15:23:37.684Z,7.80
2023-01-09T15:25:40.821Z,7.80
2023-01-09T15:27:57.758Z,7.70
2023-01-09T15:30:16.126Z,7.70
2023-01-09T15:32:25.878Z,7.70
2023-01-09T15:34:27.686Z,7.70
2023-01-09T15:36:31.053Z,7.70
2023-01-09T15:38:35.864Z,7.70
2023-01-09T15:40:37.953Z,7.70
2023-01-09T15:42:57.111Z,7.70
2023-01-09T15:44:59.440Z,7.70
2023-01-09T15:47:02.998Z,7.70
2023-01-09T15:49:04.862Z,7.70
2023-01-09T15:51:14.291Z,7.60
2023-01-09T15:53:18.520Z,7.60
2023-01-09T15:55:35.219Z,7.60
2023-01-09T15:57:36.984Z,7.60
2023-01-09T15:59:38.674Z,7.50
2023-01-09T16:01:41.616Z,7.50
2023-01-09T16:03:43.592Z,7.50
2023-01-09T16:05:49.208Z,7.50
2023-01-09T16:07:51.511Z,7.40
2023-01-09T16:09:53.395Z,7.30
2023-01-09T16:12:01.158Z,7.30
2023-01-09T16:14:24.535Z,7.30
2023-01-09T16:16:32.637Z,7.30
2023-01-09T16:18:38.402Z,7.20
2023-01-09T16:20:40.255Z,7.10
2023-01-09T16:22:56.309Z,7.10
2023-01-09T16:25:00.959Z,7.00
2023-01-09T16:27:17.882Z,7.00
2023-01-09T16:29:37.666Z,6.90
2023-01-09T16:31:39.580Z,6.80
2023-01-09T16:33:52.121Z,6.80
2023-01-09T16:35:54.474Z,6.70
2023-01-09T16:37:56.270Z,6.70
2023-01-09T16:40:21.280Z,6.80
2023-01-09T16:42:41.626Z,6.80
2023-01-09T16:44:43.388Z,6.80
2023-01-09T16:46:45.619Z,6.80
2023-01-09T16:48:48.342Z,6.70
2023-01-09T16:50:50.154Z,6.80
2023-01-09T16:52:52.423Z,6.80
2023-01-09T16:54:54.222Z,6.70
2023-01-09T16:56:56.173Z,6.70
2023-01-09T16:58:58.936Z,6.70
2023-01-09T17:01:00.706Z,6.70
2023-01-09T17:03:03.692Z,6.70
2023-01-09T17:05:05.973Z,6.70
2023-01-09T17:07:13.889Z,6.70
2023-01-09T17:09:18.944Z,6.60
2023-01-09T17:11:23.858Z,6.60
2023-01-09T17:13:26.157Z,6.70
2023-01-09T17:15:27.950Z,6.70
2023-01-09T17:17:29.763Z,6.60
2023-01-09T17:19:31.596Z,6.60
2023-01-09T17:21:33.465Z,6.50
2023-01-09T17:23:35.268Z,6.50
2023-01-09T17:25:56.419Z,6.50
2023-01-09T17:28:16.971Z,6.40
2023-01-09T17:30:20.519Z,6.40
2023-01-09T17:32:22.295Z,6.40
2023-01-09T17:34:24.133Z,6.40
2023-01-09T17:36:34.714Z,6.40
2023-01-09T17:38:36.655Z,6.40
2023-01-09T17:40:38.430Z,6.40
2023-01-09T17:42:40.173Z,6.40
2023-01-09T17:44:42.013Z,6.40
2023-01-09T17:46:45.115Z,6.40
2023-01-09T17:48:46.791Z,6.50
2023-01-09T17:50:49.420Z,6.40
2023-01-09T17:52:51.225Z,6.40
2023-01-09T17:54:52.888Z,6.40
2023-01-09T17:56:54.653Z,6.50
2023-01-09T17:58:56.635Z,6.50
2023-01-09T18:00:59.354Z,6.50
2023-01-09T18:03:05.110Z,6.50
2023-01-09T18:05:07.297Z,6.50
2023-01-09T18:07:13.510Z,6.50
2023-01-09T18:09:17.337Z,6.40
2023-01-09T18:11:21.458Z,6.40
2023-01-09T18:13:23.174Z,6.40
2023-01-09T18:15:25.049Z,6.40
2023-01-09T18:17:26.771Z,6.40
2023-01-09T18:19:29.844Z,6.50
2023-01-09T18:21:31.747Z,6.50
2023-01-09T18:23:33.937Z,6.50
2023-01-09T18:25:39.218Z,6.50
2023-01-09T18:27:41.641Z,6.50
2023-01-09T18:29:43.432Z,6.40
2023-01-09T18:31:45.259Z,6.40
2023-01-09T18:33:48.988Z,6.40
2023-01-09T18:35:50.723Z,6.40
2023-01-09T18:37:52.421Z,6.40
2023-01-09T18:39:54.190Z,6.40
2023-01-09T18:41:55.864Z,6.40
2023-01-09T18:44:01.778Z,6.40
2023-01-09T18:46:07.477Z,6.20
2023-01-09T18:48:11.610Z,6.20
2023-01-09T18:50:13.599Z,6.30
2023-01-09T18:52:15.350Z,6.20
2023-01-09T18:54:17.248Z,6.20
2023-01-09T18:56:19.895Z,6.20
2023-01-09T18:58:21.636Z,6.10
2023-01-09T19:00:23.477Z,6.00
2023-01-09T19:02:26.260Z,6.10
2023-01-09T19:04:28.128Z,6.10
2023-01-09T19:06:30.857Z,6.00
2023-01-09T19:08:34.526Z,6.10
2023-01-09T19:10:36.275Z,6.00
2023-01-09T19:12:38.095Z,5.90
2023-01-09T19:14:40.058Z,5.90
2023-01-09T19:16:42.499Z,6.00
2023-01-09T19:18:44.958Z,6.00
2023-01-09T19:20:46.603Z,5.90
2023-01-09T19:22:48.381Z,5.90
2023-01-09T19:24:50.193Z,5.90
2023-01-09T19:26:52.267Z,5.90
2023-01-09T19:28:57.234Z,5.80
2023-01-09T19:30:59.189Z,5.90
2023-01-09T19:33:00.966Z,5.80
2023-01-09T19:35:02.920Z,5.90
2023-01-09T19:37:05.013Z,5.90
2023-01-09T19:39:07.249Z,5.90
2023-01-09T19:41:14.140Z,5.90
2023-01-09T19:43:25.909Z,5.80
2023-01-09T19:45:28.222Z,5.80
2023-01-09T19:47:35.587Z,5.90
2023-01-09T19:49:37.922Z,5.90
2023-01-09T19:51:40.276Z,5.80
2023-01-09T19:53:42.087Z,5.80
2023-01-09T19:55:44.132Z,5.90
2023-01-09T19:57:46.752Z,5.80
2023-01-09T19:59:48.410Z,5.80
2023-01-09T20:01:50.306Z,5.90
2023-01-09T20:03:53.446Z,5.90
2023-01-09T20:05:55.224Z,5.80
2023-01-09T20:07:57.702Z,5.70
2023-01-09T20:09:59.337Z,5.80
2023-01-09T20:12:02.567Z,5.80
2023-01-09T20:14:04.296Z,5.80
2023-01-09T20:16:06.970Z,5.80
2023-01-09T20:18:08.757Z,5.90
2023-01-09T20:20:10.984Z,5.80
2023-01-09T20:22:13.650Z,5.80
2023-01-09T20:24:16.936Z,5.80
2023-01-09T20:26:19.553Z,5.80
2023-01-09T20:28:22.335Z,5.80
2023-01-09T20:30:24.085Z,5.90
2023-01-09T20:32:25.771Z,5.90
2023-01-09T20:34:27.662Z,5.90
2023-01-09T20:36:31.062Z,5.90
2023-01-09T20:38:33.419Z,5.90
2023-01-09T20:40:36.290Z,5.80
2023-01-09T20:42:38.078Z,5.80
2023-01-09T20:44:39.757Z,5.80
2023-01-09T20:46:47.500Z,6.30
2023-01-09T20:48:50.031Z,6.40
2023-01-09T20:50:51.899Z,6.40
2023-01-09T20:52:54.364Z,6.10
2023-01-09T20:54:56.080Z,5.90
2023-01-09T20:56:58.017Z,5.80
2023-01-09T20:59:00.909Z,5.80
2023-01-09T21:01:22.783Z,5.70
2023-01-09T21:03:24.617Z,5.80
2023-01-09T21:05:27.014Z,5.80
2023-01-09T21:07:28.837Z,5.90
2023-01-09T21:09:30.603Z,5.80
2023-01-09T21:11:32.967Z,5.80
2023-01-09T21:13:35.129Z,5.80
2023-01-09T21:15:43.160Z,5.80
2023-01-09T21:17:45.340Z,5.80
2023-01-09T21:19:49.675Z,5.80
2023-01-09T21:21:53.273Z,5.80
2023-01-09T21:24:01.609Z,5.70
2023-01-09T21:26:09.520Z,5.70
2023-01-09T21:28:17.015Z,5.70
2023-01-09T21:30:19.181Z,5.80
2023-01-09T21:32:22.049Z,5.80
2023-01-09T21:34:23.944Z,5.80
2023-01-09T21:36:26.388Z,5.70
2023-01-09T21:38:28.080Z,5.70
2023-01-09T21:40:29.860Z,5.70
2023-01-09T21:42:50.314Z,5.80
2023-01-09T21:45:11.027Z,5.80
2023-01-09T21:47:12.789Z,5.80
2023-01-09T21:49:14.552Z,5.80
2023-01-09T21:51:16.338Z,5.80
2023-01-09T21:53:18.151Z,5.90
2023-01-09T21:55:20.150Z,5.90
2023-01-09T21:57:22.033Z,5.90
2023-01-09T21:59:24.772Z,5.90
2023-01-09T22:01:26.814Z,5.90
2023-01-09T22:03:28.901Z,5.90
2023-01-09T22:05:30.718Z,5.90
2023-01-09T22:07:32.554Z,6.00
2023-01-09T22:09:34.368Z,6.00
2023-01-09T22:11:37.169Z,5.90
2023-01-09T22:13:38.994Z,5.90
2023-01-09T22:15:41.545Z,6.00
2023-01-09T22:17:43.684Z,6.00
2023-01-09T22:19:45.733Z,5.90
2023-01-09T22:21:48.233Z,5.90
2023-01-09T22:23:50.591Z,5.90
2023-01-09T22:25:53.385Z,5.90
2023-01-09T22:27:55.230Z,5.90
2023-01-09T22:29:56.951Z,5.90
2023-01-09T22:31:58.788Z,5.90
2023-01-09T22:34:03.130Z,6.00
2023-01-09T22:36:07.339Z,6.00
2023-01-09T22:38:11.278Z,6.00
2023-01-09T22:40:14.176Z,5.90
2023-01-09T22:42:16.741Z,6.00
2023-01-09T22:44:19.335Z,6.00
2023-01-09T22:46:21.241Z,6.00
2023-01-09T22:48:23.045Z,6.00
2023-01-09T22:50:25.166Z,6.00
2023-01-09T22:52:28.581Z,6.00
2023-01-09T22:54:30.340Z,6.00
2023-01-09T22:56:34.845Z,6.00
2023-01-09T22:58:36.974Z,5.90
2023-01-09T23:00:38.653Z,5.90
2023-01-09T23:02:40.563Z,5.90
2023-01-09T23:04:42.428Z,6.00
2023-01-09T23:06:44.223Z,5.90
2023-01-09T23:08:46.912Z,5.90
2023-01-09T23:10:48.684Z,6.00
2023-01-09T23:12:50.470Z,6.00
2023-01-09T23:14:52.221Z,6.10
2023-01-09T23:16:54.874Z,6.00
2023-01-09T23:18:56.656Z,6.00
2023-01-09T23:21:03.795Z,6.00
2023-01-09T23:23:05.920Z,6.00
2023-01-09T23:25:08.311Z,6.00
2023-01-09T23:27:10.159Z,6.00
2023-01-09T23:29:12.585Z,6.00
2023-01-09T23:31:15.387Z,6.00
2023-01-09T23:33:18.098Z,6.10
2023-01-09T23:35:19.898Z,6.00
2023-01-09T23:37:21.716Z,6.00
2023-01-09T23:39:24.179Z,5.90
2023-01-09T23:41:46.366Z,5.90
2023-01-09T23:43:48.119Z,5.90
2023-01-09T23:45:51.672Z,5.80
2023-01-09T23:47:53.423Z,5.90
2023-01-09T23:49:55.101Z,5.90
2023-01-09T23:51:57.322Z,5.90
2023-01-09T23:53:59.110Z,5.80
2023-01-09T23:56:01.520Z,5.90
2023-01-09T23:58:03.360Z,5.90
